PILOTS ONLINE: 333    ATC ONLINE: 29

KTRK

Truckee Tahoe Airport

Location

City Truckee
Country  United States
Latitude 39° 19' 12" N
Longitude 120° 8' 23" W
Elevation 5900 ft
Type Medium Airport

Map

Weather

METAR
2014/10/24 11:35
KTRK 241135Z AUTO 22009G15KT 10SM CLR 10/M06 A3011 RMK AO2
TAF
2014/10/24 12:21
TAF KTRK 241120Z 2412/2512 24011KT P6SM SCT180 
     FM241700 21014G25KT P6SM SCT180 
     FM250400 20011KT P6SM SCT180

Runways

01/19 4650 ft / 75 ft
10/28 7000 ft / 100 ft

Outbound flights

Callsign Flying to Pilot ATD/STD ETA Aircraft

Inbound flights

Callsign Flying from Pilot ATD ETA Aircraft